Time;durP1;ratioP1;P1;durP2;ratioP2;P2;SDS_P1;SDS_P2;PMS_P1;PMS_P2;Temp;Humidity;BMP_temperature;BMP_pressure;BME280_temperature;BME280_humidity;BME280_pressure;Samples;Min_cycle;Max_cycle;Signal;HPM_P1;HPM_P2
2023/03/14 00:02:21;;;;;;;3.42;1.98;;;10.80;95.50;;;;;;5082193;28;20484;-71
2023/03/14 00:04:50;;;;;;;3.58;1.63;;;10.80;95.50;;;;;;5079110;28;20429;-73
2023/03/14 00:07:16;;;;;;;5.20;2.10;;;10.70;95.80;;;;;;5079600;28;20443;-73
2023/03/14 00:09:43;;;;;;;3.15;1.80;;;10.60;95.90;;;;;;5086833;28;20406;-72
2023/03/14 00:12:10;;;;;;;3.45;1.70;;;10.70;96.00;;;;;;5078127;28;20449;-72
2023/03/14 00:14:37;;;;;;;3.85;1.60;;;10.60;95.80;;;;;;5068751;28;20419;-73
2023/03/14 00:17:03;;;;;;;4.00;1.30;;;10.60;95.80;;;;;;5067136;28;20415;-72
2023/03/14 00:19:30;;;;;;;3.22;1.40;;;10.80;95.50;;;;;;5084335;28;20904;-73
2023/03/14 00:21:58;;;;;;;5.35;1.80;;;10.90;95.10;;;;;;5076492;28;20436;-73
2023/03/14 00:24:25;;;;;;;4.20;1.70;;;11.00;94.40;;;;;;5082485;28;20444;-73
2023/03/14 00:26:52;;;;;;;4.30;1.95;;;11.10;94.20;;;;;;5083918;28;20741;-72
2023/03/14 00:29:18;;;;;;;3.60;1.60;;;11.20;94.00;;;;;;5075858;28;20417;-73
2023/03/14 00:31:45;;;;;;;4.75;1.80;;;11.20;93.60;;;;;;5074140;28;20522;-73
2023/03/14 00:34:12;;;;;;;3.90;1.50;;;11.30;93.40;;;;;;5085148;28;20477;-73
2023/03/14 00:36:39;;;;;;;3.78;1.70;;;11.40;92.90;;;;;;5084987;28;20433;-74
2023/03/14 00:39:07;;;;;;;3.75;1.58;;;11.40;92.70;;;;;;5077862;28;20437;-73
2023/03/14 00:41:34;;;;;;;4.20;1.60;;;11.40;92.40;;;;;;5082742;28;20413;-72
2023/03/14 00:44:00;;;;;;;5.45;1.60;;;11.40;92.70;;;;;;5074059;28;20497;-72
2023/03/14 00:46:27;;;;;;;4.95;2.20;;;11.50;92.40;;;;;;5070566;28;20759;-73
2023/03/14 00:48:54;;;;;;;2.90;1.60;;;11.50;92.50;;;;;;5088923;22;20438;-74
2023/03/14 00:51:21;;;;;;;3.50;1.30;;;11.50;91.90;;;;;;5080520;28;20914;-74
2023/03/14 00:53:48;;;;;;;3.50;1.30;;;11.60;91.60;;;;;;5072569;28;20416;-74
2023/03/14 00:56:16;;;;;;;3.90;1.30;;;11.70;91.30;;;;;;5088997;28;20414;-74
2023/03/14 00:58:43;;;;;;;5.28;1.48;;;11.70;91.00;;;;;;5074815;28;20521;-74
2023/03/14 01:01:11;;;;;;;2.58;1.17;;;11.70;90.90;;;;;;5088005;28;20431;-74
2023/03/14 01:03:38;;;;;;;3.03;1.40;;;11.80;90.80;;;;;;5073824;28;20713;-75
2023/03/14 01:06:14;;;;;;;4.60;1.38;;;11.80;90.60;;;;;;5072985;28;20439;-76
2023/03/14 01:08:41;;;;;;;3.33;1.20;;;11.80;90.70;;;;;;5073909;28;20485;-73
2023/03/14 01:11:10;;;;;;;2.50;1.50;;;11.80;91.00;;;;;;5070075;28;20754;-75
2023/03/14 01:13:38;;;;;;;2.67;1.17;;;11.80;91.30;;;;;;5074865;28;20439;-75
2023/03/14 01:16:07;;;;;;;3.25;1.15;;;11.80;92.40;;;;;;5062513;28;20550;-75
2023/03/14 01:18:35;;;;;;;3.45;1.40;;;11.70;93.20;;;;;;5077463;28;20916;-74
2023/03/14 01:21:02;;;;;;;3.95;1.80;;;11.50;95.00;;;;;;5064815;28;20429;-74
2023/03/14 01:23:29;;;;;;;5.03;1.63;;;11.20;98.90;;;;;;5075194;28;20825;-76
2023/03/14 01:25:56;;;;;;;5.90;1.60;;;10.80;99.90;;;;;;5068693;28;20464;-76
2023/03/14 01:28:22;;;;;;;4.15;2.25;;;10.30;99.90;;;;;;5069894;28;20426;-75
2023/03/14 01:30:50;;;;;;;3.50;1.70;;;9.90;99.90;;;;;;5060510;28;20773;-74
2023/03/14 01:33:17;;;;;;;6.40;2.23;;;9.70;99.90;;;;;;5061752;28;20416;-75
2023/03/14 01:35:44;;;;;;;4.20;2.20;;;9.50;99.90;;;;;;5056570;28;20771;-74
2023/03/14 01:38:10;;;;;;;8.00;1.90;;;9.50;99.90;;;;;;5069494;28;20439;-75
2023/03/14 01:40:43;;;;;;;3.67;1.70;;;9.40;99.90;;;;;;5066097;28;20939;-74
2023/03/14 01:43:15;;;;;;;3.63;1.60;;;9.40;99.90;;;;;;5046861;28;20421;-74
2023/03/14 01:46:25;;;;;;;5.20;1.60;;;9.30;99.90;;;;;;5057089;28;20411;-75
2023/03/14 01:49:02;;;;;;;5.32;2.15;;;9.20;99.90;;;;;;5060139;28;20849;-75
2023/03/14 01:51:34;;;;;;;3.23;1.40;;;9.20;99.90;;;;;;5068190;28;20453;-75
2023/03/14 01:54:07;;;;;;;5.82;1.98;;;9.20;99.90;;;;;;5067145;28;20422;-76
2023/03/14 01:56:34;;;;;;;3.97;1.40;;;9.20;99.90;;;;;;5059014;28;20445;-74
2023/03/14 01:59:04;;;;;;;3.47;1.20;;;9.10;99.90;;;;;;5068598;28;20802;-75
2023/03/14 02:01:31;;;;;;;3.38;1.50;;;9.10;99.90;;;;;;5065345;28;20430;-75
2023/03/14 02:04:03;;;;;;;3.50;1.00;;;9.00;99.90;;;;;;5053218;28;20422;-74
2023/03/14 02:06:36;;;;;;;3.38;1.20;;;9.00;99.90;;;;;;5067484;28;20693;-75
2023/03/14 02:09:04;;;;;;;2.60;1.10;;;8.90;99.90;;;;;;5068979;28;20491;-74
2023/03/14 02:11:31;;;;;;;3.30;1.20;;;8.80;99.90;;;;;;5051253;28;20409;-75
2023/03/14 02:13:59;;;;;;;3.42;1.08;;;8.80;99.90;;;;;;5049320;28;20413;-74
2023/03/14 02:16:26;;;;;;;3.90;1.10;;;8.80;99.90;;;;;;5050508;28;20445;-74
2023/03/14 02:18:53;;;;;;;3.15;0.73;;;8.80;99.90;;;;;;5050642;28;20425;-74
2023/03/14 02:21:31;;;;;;;2.60;0.80;;;8.80;99.90;;;;;;5059373;28;20428;-75
2023/03/14 02:24:05;;;;;;;3.20;0.90;;;8.80;99.90;;;;;;5066150;28;20437;-75
2023/03/14 02:26:37;;;;;;;2.27;0.93;;;8.70;99.90;;;;;;5070139;28;20980;-75
2023/03/14 02:29:06;;;;;;;2.10;0.82;;;8.70;99.90;;;;;;5049965;28;20421;-73
2023/03/14 02:31:34;;;;;;;1.37;0.80;;;8.70;99.90;;;;;;5054138;28;20412;-75
2023/03/14 02:34:02;;;;;;;2.80;1.00;;;8.70;99.90;;;;;;5061074;28;20430;-75
2023/03/14 02:36:29;;;;;;;2.10;0.80;;;8.80;99.90;;;;;;5063799;28;20447;-75
2023/03/14 02:39:06;;;;;;;1.80;0.70;;;8.80;99.90;;;;;;5064491;28;20903;-75
2023/03/14 02:41:32;;;;;;;2.15;0.70;;;8.80;99.90;;;;;;5066362;28;20437;-74
2023/03/14 02:43:59;;;;;;;2.05;0.70;;;8.70;99.90;;;;;;5073607;28;20427;-74
2023/03/14 02:46:28;;;;;;;2.80;0.90;;;8.70;99.90;;;;;;5070278;28;20412;-75
2023/03/14 02:48:57;;;;;;;2.80;0.90;;;8.60;99.90;;;;;;5059999;28;20409;-75
2023/03/14 02:51:26;;;;;;;3.10;1.00;;;8.50;99.90;;;;;;5055770;28;20448;-76
2023/03/14 02:53:53;;;;;;;2.17;1.00;;;8.60;99.90;;;;;;5068005;28;20416;-75
2023/03/14 02:56:20;;;;;;;2.40;1.10;;;8.60;99.90;;;;;;5055552;28;20787;-75
2023/03/14 02:58:47;;;;;;;2.30;1.02;;;8.60;99.90;;;;;;5070301;28;20415;-74
2023/03/14 03:01:14;;;;;;;3.05;1.30;;;8.50;99.90;;;;;;5067591;28;20419;-77
2023/03/14 03:03:42;;;;;;;2.92;1.50;;;8.40;99.90;;;;;;5067871;28;20419;-76
2023/03/14 03:06:09;;;;;;;4.90;2.20;;;8.40;99.90;;;;;;5061373;28;20427;-75
2023/03/14 03:08:35;;;;;;;4.00;1.90;;;8.40;99.90;;;;;;5057771;28;20911;-76
2023/03/14 03:11:04;;;;;;;2.58;1.80;;;8.50;99.90;;;;;;5053442;28;21166;-74
2023/03/14 03:13:30;;;;;;;2.95;1.85;;;8.50;99.90;;;;;;5067636;28;20443;-75
2023/03/14 03:15:57;;;;;;;4.45;1.98;;;8.60;99.90;;;;;;5050720;28;20421;-76
2023/03/14 03:18:24;;;;;;;4.57;1.80;;;8.60;99.90;;;;;;5049272;28;20534;-75
2023/03/14 03:20:52;;;;;;;2.80;1.45;;;8.70;99.90;;;;;;5055913;28;20433;-75
2023/03/14 03:23:19;;;;;;;3.20;2.10;;;8.70;99.90;;;;;;5066942;28;20435;-75
2023/03/14 03:25:49;;;;;;;2.60;1.60;;;8.70;99.90;;;;;;5061467;28;20432;-74
2023/03/14 03:28:16;;;;;;;4.35;1.70;;;8.80;99.90;;;;;;5047677;28;20888;-74
2023/03/14 03:30:43;;;;;;;4.90;1.98;;;8.80;99.90;;;;;;5049384;28;20780;-76
2023/03/14 03:33:11;;;;;;;5.07;2.17;;;8.80;99.90;;;;;;5047728;28;20521;-73
2023/03/14 03:35:43;;;;;;;4.57;2.13;;;8.80;99.90;;;;;;5053700;28;20425;-75
2023/03/14 03:38:12;;;;;;;3.70;1.60;;;8.90;99.90;;;;;;5053943;28;20432;-76
2023/03/14 03:40:39;;;;;;;4.63;2.00;;;9.00;99.90;;;;;;5056047;28;20451;-76
2023/03/14 03:43:06;;;;;;;4.13;2.00;;;9.00;99.90;;;;;;5063985;28;20487;-74
2023/03/14 03:45:32;;;;;;;3.55;1.60;;;9.00;99.90;;;;;;5069469;28;20420;-75
2023/03/14 03:47:59;;;;;;;4.10;1.90;;;9.10;99.90;;;;;;5062486;28;20903;-76
2023/03/14 03:50:26;;;;;;;5.03;1.80;;;9.10;99.90;;;;;;5065942;28;20423;-76
2023/03/14 03:52:53;;;;;;;5.25;1.65;;;9.20;99.90;;;;;;5063843;28;20443;-74
2023/03/14 03:55:21;;;;;;;4.30;1.70;;;9.30;99.90;;;;;;5056554;28;20429;-75
2023/03/14 03:57:48;;;;;;;3.67;1.52;;;9.30;99.90;;;;;;5063475;28;20688;-75
2023/03/14 04:00:15;;;;;;;6.20;1.50;;;9.40;99.90;;;;;;5067851;28;20498;-73
2023/03/14 04:02:42;;;;;;;4.22;1.40;;;9.50;99.90;;;;;;5050105;28;20772;-74
2023/03/14 04:05:09;;;;;;;4.27;1.90;;;9.60;99.90;;;;;;5066638;28;20420;-74
2023/03/14 04:07:36;;;;;;;5.00;2.13;;;9.50;99.90;;;;;;5061647;28;20421;-74
2023/03/14 04:10:02;;;;;;;6.88;2.30;;;9.60;99.90;;;;;;5060885;28;20530;-73
2023/03/14 04:12:30;;;;;;;4.57;1.67;;;9.60;99.90;;;;;;5055703;28;20454;-73
2023/03/14 04:14:57;;;;;;;5.07;2.10;;;9.60;99.90;;;;;;5059889;28;20424;-76
2023/03/14 04:17:24;;;;;;;3.33;1.40;;;9.50;99.90;;;;;;5061014;28;20417;-73
2023/03/14 04:19:53;;;;;;;3.50;1.57;;;9.50;99.90;;;;;;5060400;28;20514;-74
2023/03/14 04:22:20;;;;;;;3.15;1.52;;;9.40;99.90;;;;;;5048622;28;20439;-75
2023/03/14 04:24:47;;;;;;;3.88;1.75;;;9.30;99.90;;;;;;5052804;28;20451;-74
2023/03/14 04:27:14;;;;;;;5.20;1.90;;;9.30;99.90;;;;;;5047998;28;20419;-74
2023/03/14 04:29:42;;;;;;;4.03;1.50;;;9.20;99.90;;;;;;5047871;28;20495;-74
2023/03/14 04:32:09;;;;;;;3.40;1.60;;;9.20;99.90;;;;;;5052906;28;20416;-74
2023/03/14 04:34:36;;;;;;;4.72;1.50;;;9.20;99.90;;;;;;5064321;28;20423;-76
2023/03/14 04:37:02;;;;;;;5.55;1.33;;;9.20;99.90;;;;;;5061554;28;20425;-76
2023/03/14 04:39:29;;;;;;;5.03;1.30;;;9.20;99.90;;;;;;5048010;28;20417;-76
2023/03/14 04:41:56;;;;;;;3.28;1.20;;;9.20;99.90;;;;;;5060541;28;20436;-75
2023/03/14 04:44:23;;;;;;;3.35;1.80;;;9.20;99.90;;;;;;5046489;28;20425;-74
2023/03/14 04:46:51;;;;;;;3.88;1.33;;;9.20;99.90;;;;;;5054737;28;20412;-74
2023/03/14 04:49:18;;;;;;;3.60;1.50;;;9.20;99.90;;;;;;5063684;28;20492;-76
2023/03/14 04:51:44;;;;;;;3.30;1.45;;;9.20;99.90;;;;;;5059410;28;20416;-75
2023/03/14 04:54:11;;;;;;;4.30;1.88;;;9.20;99.90;;;;;;5059763;28;20424;-75
2023/03/14 04:56:38;;;;;;;3.40;1.08;;;9.10;99.90;;;;;;5045202;28;20753;-74
2023/03/14 04:59:05;;;;;;;3.53;1.20;;;9.10;99.90;;;;;;5046005;28;20425;-77
2023/03/14 05:01:32;;;;;;;2.97;1.10;;;9.10;99.90;;;;;;5044673;28;20433;-75
2023/03/14 05:04:00;;;;;;;3.80;1.50;;;9.10;99.90;;;;;;5059566;28;20436;-74
2023/03/14 05:06:26;;;;;;;3.42;1.30;;;9.10;99.90;;;;;;5064056;28;20523;-76
2023/03/14 05:08:53;;;;;;;2.13;1.10;;;9.00;99.90;;;;;;5059873;28;20660;-74
2023/03/14 05:11:20;;;;;;;2.50;0.98;;;9.00;99.90;;;;;;5063797;28;20910;-74
2023/03/14 05:13:47;;;;;;;3.22;1.60;;;9.10;99.90;;;;;;5057393;28;20924;-75
2023/03/14 05:16:13;;;;;;;2.83;1.30;;;9.10;99.90;;;;;;5047931;28;20441;-74
2023/03/14 05:18:40;;;;;;;3.40;1.20;;;9.10;99.90;;;;;;5060266;28;20442;-75
2023/03/14 05:21:08;;;;;;;1.65;0.90;;;9.10;99.90;;;;;;5059105;28;20440;-74
2023/03/14 05:23:35;;;;;;;2.03;0.70;;;9.20;99.90;;;;;;5063455;28;20427;-74
2023/03/14 05:26:04;;;;;;;1.90;0.77;;;9.20;99.90;;;;;;5057694;28;20761;-75
2023/03/14 05:28:31;;;;;;;1.90;0.60;;;9.20;99.90;;;;;;5046087;28;20417;-77
2023/03/14 05:30:58;;;;;;;1.98;0.63;;;9.30;99.90;;;;;;5060978;28;20422;-74
2023/03/14 05:33:24;;;;;;;1.55;0.60;;;9.30;99.90;;;;;;5065466;28;20813;-75
2023/03/14 05:35:51;;;;;;;2.60;0.90;;;9.30;99.90;;;;;;5072208;28;20413;-77
2023/03/14 05:38:19;;;;;;;1.15;0.50;;;9.30;99.90;;;;;;5054864;28;20883;-76
2023/03/14 05:40:46;;;;;;;1.42;0.60;;;9.30;99.90;;;;;;5073733;28;20427;-77
2023/03/14 05:43:14;;;;;;;1.10;0.40;;;9.30;99.90;;;;;;5061726;28;20447;-74
2023/03/14 05:45:41;;;;;;;1.10;0.47;;;9.30;99.90;;;;;;5067146;28;20541;-73
2023/03/14 05:48:08;;;;;;;0.80;0.50;;;9.30;99.90;;;;;;5068526;28;20435;-75
2023/03/14 05:50:35;;;;;;;1.40;0.60;;;9.30;99.90;;;;;;5075270;28;20425;-73
2023/03/14 05:53:02;;;;;;;1.20;0.43;;;9.40;99.90;;;;;;5066441;28;20492;-75
2023/03/14 05:55:30;;;;;;;0.80;0.50;;;9.40;99.90;;;;;;5068486;28;20457;-75
2023/03/14 05:57:57;;;;;;;1.13;0.40;;;9.40;99.90;;;;;;5064948;28;20762;-75
2023/03/14 06:00:24;;;;;;;1.30;0.40;;;9.40;99.90;;;;;;5065596;28;20435;-75
2023/03/14 06:02:50;;;;;;;0.70;0.40;;;9.50;99.90;;;;;;5067414;28;20427;-75
2023/03/14 06:05:17;;;;;;;0.60;0.40;;;9.50;99.90;;;;;;5067661;28;20421;-75
2023/03/14 06:07:44;;;;;;;1.60;0.60;;;9.50;99.90;;;;;;5061936;28;20837;-75
2023/03/14 06:10:11;;;;;;;0.60;0.40;;;9.50;99.90;;;;;;5056199;28;20904;-75
2023/03/14 06:12:39;;;;;;;0.90;0.50;;;9.40;99.90;;;;;;5056146;28;20588;-74
2023/03/14 06:15:08;;;;;;;1.20;0.70;;;9.30;99.90;;;;;;5066454;28;20439;-74
2023/03/14 06:17:34;;;;;;;1.83;0.40;;;9.30;99.90;;;;;;5063488;28;20432;-75
2023/03/14 06:20:01;;;;;;;0.80;0.50;;;9.30;99.90;;;;;;5068398;28;20439;-73
2023/03/14 06:22:28;;;;;;;0.90;0.50;;;9.30;99.90;;;;;;5061505;28;20990;-75
2023/03/14 06:24:54;;;;;;;1.00;0.50;;;9.30;99.90;;;;;;5066859;28;20412;-75
2023/03/14 06:27:21;;;;;;;1.27;0.50;;;9.30;99.90;;;;;;5050709;28;20790;-74
2023/03/14 06:29:49;;;;;;;1.20;0.50;;;9.30;99.90;;;;;;5049096;28;20433;-74
2023/03/14 06:32:17;;;;;;;1.40;0.40;;;9.30;99.90;;;;;;5063362;28;20427;-74
2023/03/14 06:34:44;;;;;;;1.20;0.50;;;9.40;99.90;;;;;;5065391;28;20459;-74
2023/03/14 06:37:11;;;;;;;1.60;0.50;;;9.40;99.90;;;;;;5064827;28;20566;-74
2023/03/14 06:39:38;;;;;;;1.10;0.77;;;9.50;99.90;;;;;;5062401;28;20431;-74
2023/03/14 06:42:05;;;;;;;1.90;0.40;;;9.50;99.90;;;;;;5064406;28;20436;-74
2023/03/14 06:44:32;;;;;;;1.05;0.45;;;9.60;99.90;;;;;;5064814;28;20439;-74
2023/03/14 06:47:00;;;;;;;1.15;0.40;;;9.70;99.90;;;;;;5066032;28;20427;-73
2023/03/14 06:49:27;;;;;;;0.80;0.45;;;9.70;99.90;;;;;;5088957;22;20759;-76
2023/03/14 06:51:54;;;;;;;0.98;0.40;;;9.80;99.90;;;;;;5054419;28;20440;-74
2023/03/14 06:54:21;;;;;;;0.70;0.40;;;9.80;99.90;;;;;;5064936;28;20644;-76
2023/03/14 06:56:48;;;;;;;0.70;0.40;;;9.90;99.90;;;;;;5068750;28;20433;-75
2023/03/14 06:59:14;;;;;;;0.60;0.30;;;9.90;99.90;;;;;;5050782;28;20427;-74
2023/03/14 07:01:41;;;;;;;0.60;0.30;;;10.00;99.90;;;;;;5055559;28;20427;-75
2023/03/14 07:04:09;;;;;;;0.90;0.30;;;10.00;99.90;;;;;;5049994;28;20437;-76
2023/03/14 07:06:37;;;;;;;0.60;0.30;;;10.10;99.90;;;;;;5055989;28;20432;-76
2023/03/14 07:09:04;;;;;;;0.70;0.40;;;10.20;99.90;;;;;;5056191;28;20417;-75
2023/03/14 07:11:30;;;;;;;1.10;0.30;;;10.20;99.90;;;;;;5069718;28;20422;-76
2023/03/14 07:13:57;;;;;;;0.80;0.40;;;10.20;99.90;;;;;;5069053;28;20442;-75
2023/03/14 07:16:24;;;;;;;0.90;0.50;;;10.30;99.90;;;;;;5079337;28;20448;-77
2023/03/14 07:18:51;;;;;;;0.60;0.40;;;10.40;99.90;;;;;;5065364;28;20538;-74
2023/03/14 07:21:20;;;;;;;0.63;0.45;;;10.50;99.90;;;;;;5078529;28;20437;-75
2023/03/14 07:23:46;;;;;;;0.80;0.40;;;10.60;99.90;;;;;;5054264;28;20429;-75
2023/03/14 07:26:13;;;;;;;1.60;0.30;;;10.60;99.90;;;;;;5046728;28;20428;-76
2023/03/14 07:28:40;;;;;;;1.38;0.40;;;10.70;99.90;;;;;;5046381;28;20421;-75
2023/03/14 07:31:07;;;;;;;0.93;0.40;;;10.70;99.90;;;;;;5045803;28;20424;-76
2023/03/14 07:33:34;;;;;;;1.10;0.43;;;10.80;99.90;;;;;;5070490;28;20427;-75
2023/03/14 07:36:01;;;;;;;0.70;0.40;;;10.80;99.90;;;;;;5065909;28;20604;-75
2023/03/14 07:38:29;;;;;;;1.08;0.55;;;10.90;99.90;;;;;;5066746;28;20411;-75
2023/03/14 07:41:00;;;;;;;0.60;0.40;;;11.00;99.90;;;;;;5055858;28;20514;-76
2023/03/14 07:43:26;;;;;;;1.27;0.40;;;11.10;99.90;;;;;;5063253;28;20897;-75
2023/03/14 07:45:53;;;;;;;0.68;0.40;;;11.20;99.90;;;;;;5055563;28;20539;-75
2023/03/14 07:48:21;;;;;;;0.90;0.30;;;11.30;99.90;;;;;;5060444;28;20430;-75
2023/03/14 07:50:49;;;;;;;1.10;0.40;;;11.40;99.90;;;;;;5071911;28;20461;-75
2023/03/14 07:53:16;;;;;;;0.85;0.70;;;11.50;99.90;;;;;;5058468;28;20417;-76
2023/03/14 07:55:45;;;;;;;0.90;0.33;;;11.60;99.90;;;;;;5059682;28;20427;-76
2023/03/14 07:58:12;;;;;;;0.70;0.40;;;11.60;99.70;;;;;;5060149;28;20424;-76
2023/03/14 08:00:40;;;;;;;0.90;0.50;;;11.70;99.80;;;;;;5059715;28;20755;-76
2023/03/14 08:03:07;;;;;;;0.90;0.50;;;11.70;99.80;;;;;;5064046;28;21266;-76
2023/03/14 08:05:36;;;;;;;1.70;0.60;;;11.70;99.70;;;;;;5062053;28;20579;-76
2023/03/14 08:08:02;;;;;;;1.40;0.60;;;11.70;99.70;;;;;;5066633;28;20463;-76
2023/03/14 08:10:29;;;;;;;1.00;0.50;;;11.70;99.30;;;;;;5054567;28;20421;-76
2023/03/14 08:13:01;;;;;;;1.40;0.50;;;11.60;99.90;;;;;;5068628;28;20436;-75
2023/03/14 08:15:30;;;;;;;0.80;0.50;;;11.60;99.40;;;;;;5078711;28;20405;-76
2023/03/14 08:17:56;;;;;;;1.80;0.60;;;11.60;99.60;;;;;;5071891;28;20560;-76
2023/03/14 08:20:26;;;;;;;1.27;0.57;;;11.60;99.80;;;;;;5090678;28;20628;-76
2023/03/14 08:22:53;;;;;;;1.38;0.75;;;11.60;99.90;;;;;;5074529;28;20440;-76
2023/03/14 08:25:20;;;;;;;1.00;0.70;;;11.70;99.70;;;;;;5061379;28;20422;-76
2023/03/14 08:27:46;;;;;;;1.27;0.50;;;11.70;99.90;;;;;;5059700;28;20794;-75
2023/03/14 08:30:16;;;;;;;0.90;0.40;;;11.80;99.20;;;;;;5061460;28;20437;-75
2023/03/14 08:32:43;;;;;;;1.00;0.60;;;11.90;99.20;;;;;;5043209;28;20520;-76
2023/03/14 08:35:11;;;;;;;1.02;0.60;;;12.00;98.40;;;;;;5054444;28;20433;-74
2023/03/14 08:37:38;;;;;;;1.08;0.60;;;12.00;99.20;;;;;;5058193;28;20510;-74
2023/03/14 08:40:07;;;;;;;1.75;0.55;;;11.90;99.90;;;;;;5050463;28;20888;-76
2023/03/14 08:42:34;;;;;;;1.63;0.60;;;11.80;99.90;;;;;;5057303;28;20423;-76
2023/03/14 08:45:01;;;;;;;0.80;0.50;;;11.50;99.90;;;;;;5050892;28;20456;-74
2023/03/14 08:47:29;;;;;;;1.63;0.60;;;11.40;99.90;;;;;;5046143;28;20429;-75
2023/03/14 08:49:56;;;;;;;2.00;0.50;;;11.30;99.90;;;;;;5052481;28;20512;-76
2023/03/14 08:52:23;;;;;;;2.10;0.80;;;11.30;99.90;;;;;;5068482;28;20419;-75
2023/03/14 08:54:49;;;;;;;5.85;3.30;;;11.30;99.90;;;;;;5073020;28;20920;-65
2023/03/14 08:57:16;;;;;;;2.67;2.17;;;11.40;99.90;;;;;;5058370;28;20442;-66
2023/03/14 08:59:43;;;;;;;3.05;1.90;;;11.50;99.90;;;;;;5060502;28;20439;-66
2023/03/14 09:02:12;;;;;;;1.30;0.80;;;11.50;99.90;;;;;;5076472;28;20772;-76
2023/03/14 09:04:40;;;;;;;1.00;0.50;;;11.30;99.90;;;;;;5055430;28;20440;-76
2023/03/14 09:07:07;;;;;;;1.60;0.70;;;11.00;99.90;;;;;;5069874;28;20501;-74
2023/03/14 09:09:34;;;;;;;0.85;0.50;;;10.80;99.90;;;;;;5045001;28;20532;-74
2023/03/14 09:12:01;;;;;;;1.42;0.60;;;10.60;99.90;;;;;;5054314;28;20915;-75
2023/03/14 09:14:28;;;;;;;1.00;0.60;;;10.40;99.90;;;;;;5061624;28;20425;-75
2023/03/14 09:16:55;;;;;;;0.95;0.65;;;10.30;99.90;;;;;;5072735;28;20498;-75
2023/03/14 09:19:22;;;;;;;1.20;0.70;;;10.30;99.90;;;;;;5065546;28;20431;-75
2023/03/14 09:21:50;;;;;;;1.77;0.70;;;10.30;99.90;;;;;;5080400;28;20438;-76
2023/03/14 09:24:23;;;;;;;2.00;0.70;;;10.30;99.90;;;;;;5062479;28;20518;-74
2023/03/14 09:26:50;;;;;;;2.70;0.80;;;10.30;99.90;;;;;;5060242;28;20425;-75
2023/03/14 09:29:16;;;;;;;1.80;1.00;;;10.30;99.90;;;;;;5064998;28;20499;-76
2023/03/14 09:31:44;;;;;;;2.15;1.60;;;10.30;99.90;;;;;;5053303;28;20529;-75
2023/03/14 09:34:10;;;;;;;2.40;2.00;;;10.30;99.90;;;;;;5057154;28;20456;-76
2023/03/14 09:36:39;;;;;;;1.40;1.30;;;10.30;99.90;;;;;;5053122;28;20526;-74
2023/03/14 09:39:16;;;;;;;2.70;2.00;;;10.30;99.90;;;;;;5058173;28;20462;-75
2023/03/14 09:41:47;;;;;;;8.23;1.50;;;10.20;99.90;;;;;;5052087;28;20445;-75
2023/03/14 09:44:17;;;;;;;1.40;0.80;;;9.90;99.90;;;;;;5052390;28;21281;-74
2023/03/14 09:46:47;;;;;;;2.40;0.90;;;9.30;99.90;;;;;;5053024;28;20503;-76
2023/03/14 09:49:20;;;;;;;1.45;1.00;;;8.80;99.90;;;;;;5047386;28;20428;-77
2023/03/14 09:51:50;;;;;;;2.63;1.30;;;8.50;99.90;;;;;;5051248;28;20429;-75
2023/03/14 09:54:30;;;;;;;2.60;1.80;;;8.40;99.90;;;;;;5059573;28;20411;-76
2023/03/14 09:56:57;;;;;;;1.80;1.67;;;8.20;99.90;;;;;;5058827;28;20477;-73
2023/03/14 09:59:26;;;;;;;2.00;1.90;;;8.10;99.90;;;;;;5059248;28;20440;-76
2023/03/14 10:01:53;;;;;;;2.95;1.90;;;8.00;99.90;;;;;;5052818;28;20437;-75
2023/03/14 10:04:23;;;;;;;2.60;2.28;;;7.90;99.90;;;;;;5057750;28;20433;-74
2023/03/14 10:06:50;;;;;;;4.35;2.90;;;7.90;99.90;;;;;;5048474;28;20433;-76
2023/03/14 10:09:24;;;;;;;4.00;3.20;;;7.90;99.90;;;;;;5050312;28;20421;-76
2023/03/14 10:11:55;;;;;;;3.08;2.72;;;7.90;99.90;;;;;;5066642;28;21067;-74
2023/03/14 10:14:32;;;;;;;2.90;2.70;;;7.90;99.90;;;;;;5070033;28;20940;-76
2023/03/14 10:17:07;;;;;;;2.30;2.10;;;7.80;99.90;;;;;;5052503;28;20437;-75
2023/03/14 10:19:35;;;;;;;2.80;2.40;;;7.80;99.90;;;;;;5059561;28;20480;-75
2023/03/14 10:22:04;;;;;;;3.30;2.80;;;7.70;99.90;;;;;;5053789;28;20443;-76
2023/03/14 10:24:34;;;;;;;4.80;2.80;;;7.60;99.90;;;;;;5049226;28;20513;-75
2023/03/14 10:27:03;;;;;;;3.00;2.33;;;7.60;99.90;;;;;;5068050;28;20550;-75
2023/03/14 10:29:31;;;;;;;2.47;2.28;;;7.50;99.90;;;;;;5055009;28;20440;-75
2023/03/14 10:32:01;;;;;;;2.50;2.30;;;7.50;99.90;;;;;;5076505;28;20457;-75
2023/03/14 10:34:30;;;;;;;2.40;2.20;;;7.40;99.90;;;;;;5060890;28;20437;-76
2023/03/14 10:36:59;;;;;;;2.10;1.90;;;7.40;99.90;;;;;;5064953;28;20436;-75
2023/03/14 10:39:38;;;;;;;2.03;1.85;;;7.40;99.90;;;;;;5061550;28;20963;-76
2023/03/14 10:42:12;;;;;;;3.63;1.80;;;7.40;99.90;;;;;;5059074;28;20467;-76
2023/03/14 10:44:40;;;;;;;1.80;1.70;;;7.30;99.90;;;;;;5064184;28;20836;-75
2023/03/14 10:47:07;;;;;;;2.05;1.40;;;7.30;99.90;;;;;;5053438;28;20432;-75
2023/03/14 10:49:36;;;;;;;2.30;1.48;;;7.30;99.90;;;;;;5059631;28;20446;-75
2023/03/14 10:52:14;;;;;;;3.40;1.60;;;7.30;99.90;;;;;;5060307;28;20772;-76
2023/03/14 10:54:48;;;;;;;2.65;1.75;;;7.40;99.90;;;;;;5058809;28;20422;-77
2023/03/14 10:57:14;;;;;;;2.03;1.42;;;7.40;99.90;;;;;;5047760;28;20427;-77
2023/03/14 10:59:43;;;;;;;1.63;1.53;;;7.50;99.90;;;;;;5057839;28;20521;-75
2023/03/14 11:02:25;;;;;;;1.80;1.70;;;7.50;99.90;;;;;;5057117;28;20899;-75
2023/03/14 11:05:04;;;;;;;2.00;1.80;;;7.50;99.90;;;;;;5052531;28;21026;-77
2023/03/14 11:07:36;;;;;;;3.60;2.20;;;7.50;99.90;;;;;;5049669;28;20460;-76
2023/03/14 11:10:15;;;;;;;2.50;2.30;;;7.60;99.90;;;;;;5053808;28;20533;-76
2023/03/14 11:12:54;;;;;;;2.70;2.50;;;7.60;99.90;;;;;;5054884;28;20448;-76
2023/03/14 11:15:26;;;;;;;2.92;2.25;;;7.60;99.90;;;;;;5063568;28;20442;-75
2023/03/14 11:18:13;;;;;;;2.80;2.55;;;7.70;99.90;;;;;;5057156;28;20471;-76
2023/03/14 11:20:45;;;;;;;3.40;2.70;;;7.80;99.90;;;;;;5054933;28;20477;-76
2023/03/14 11:23:17;;;;;;;2.67;2.47;;;8.10;99.90;;;;;;5055531;28;20925;-75
2023/03/14 11:25:54;;;;;;;2.65;2.10;;;8.60;99.90;;;;;;5056461;28;20433;-75
2023/03/14 11:28:30;;;;;;;2.10;1.90;;;8.90;99.90;;;;;;5062736;28;20461;-77
2023/03/14 11:31:05;;;;;;;2.65;2.10;;;9.00;99.90;;;;;;5061116;28;20486;-77
2023/03/14 11:33:47;;;;;;;2.03;1.83;;;9.00;99.90;;;;;;5074191;28;20436;-76
2023/03/14 11:36:22;;;;;;;2.60;2.30;;;9.20;99.90;;;;;;5048573;28;20424;-76
2023/03/14 11:38:51;;;;;;;2.13;2.03;;;9.50;99.90;;;;;;5065084;28;20490;-76
2023/03/14 11:41:23;;;;;;;2.97;2.03;;;9.50;99.90;;;;;;5076524;28;20427;-76
2023/03/14 11:43:55;;;;;;;2.42;2.00;;;9.50;99.90;;;;;;5064063;28;20518;-76
2023/03/14 11:46:26;;;;;;;2.00;1.50;;;9.20;99.90;;;;;;5066746;28;20591;-76
2023/03/14 11:49:02;;;;;;;3.15;1.90;;;8.60;99.90;;;;;;5065390;28;20435;-75
2023/03/14 11:51:33;;;;;;;2.10;1.30;;;7.90;99.90;;;;;;5072717;28;20434;-76
2023/03/14 11:54:08;;;;;;;1.55;1.00;;;7.40;99.90;;;;;;5071796;28;20485;-76
2023/03/14 11:56:44;;;;;;;4.10;1.40;;;7.10;99.90;;;;;;5061474;28;20843;-75
2023/03/14 11:59:17;;;;;;;2.05;1.10;;;6.90;99.90;;;;;;5057227;28;20782;-75
2023/03/14 12:01:55;;;;;;;2.30;0.70;;;6.90;99.90;;;;;;5056144;28;20444;-75
2023/03/14 12:04:44;;;;;;;2.00;0.90;;;6.90;99.90;;;;;;5050346;28;21077;-76
2023/03/14 12:07:19;;;;;;;1.77;1.40;;;6.80;99.90;;;;;;5049560;28;20437;-75
2023/03/14 12:09:46;;;;;;;2.20;1.50;;;6.90;99.90;;;;;;5060734;28;20439;-77
2023/03/14 12:12:19;;;;;;;1.88;1.67;;;7.10;99.90;;;;;;5050806;28;20438;-75
2023/03/14 12:14:53;;;;;;;2.50;2.20;;;7.20;99.90;;;;;;5070651;28;20454;-76
2023/03/14 12:17:22;;;;;;;4.05;2.30;;;7.30;99.90;;;;;;5049677;28;20543;-77
2023/03/14 12:20:00;;;;;;;3.33;2.05;;;7.30;99.90;;;;;;5058979;28;20435;-74
2023/03/14 12:22:32;;;;;;;2.65;2.10;;;7.40;99.90;;;;;;5053942;28;20457;-75
2023/03/14 12:25:14;;;;;;;3.75;3.20;;;7.50;99.90;;;;;;5063895;28;20454;-72
2023/03/14 12:28:04;;;;;;;2.40;2.10;;;7.60;99.90;;;;;;5072688;28;20455;-77
2023/03/14 12:30:33;;;;;;;3.05;2.00;;;7.60;99.90;;;;;;5046984;28;20970;-76
2023/03/14 12:33:28;;;;;;;2.60;1.70;;;7.50;99.90;;;;;;5058240;28;20459;-77
2023/03/14 12:36:13;;;;;;;2.10;1.60;;;7.60;99.90;;;;;;5001436;28;20578;-77
2023/03/14 12:39:21;;;;;;;2.88;1.80;;;7.50;99.90;;;;;;5050827;28;20437;-77
2023/03/14 12:41:53;;;;;;;2.10;1.30;;;7.60;99.90;;;;;;5068460;28;20516;-78
2023/03/14 12:44:56;;;;;;;2.47;1.50;;;7.50;99.90;;;;;;5056644;28;20571;-77
2023/03/14 12:47:51;;;;;;;2.17;1.40;;;7.60;99.90;;;;;;5058109;28;20805;-76
2023/03/14 12:50:29;;;;;;;4.85;1.80;;;7.60;99.90;;;;;;5061566;28;20456;-77
2023/03/14 12:53:21;;;;;;;3.67;1.50;;;7.70;99.90;;;;;;5059793;28;20890;-78
2023/03/14 12:55:55;;;;;;;3.88;2.10;;;7.60;99.90;;;;;;5052963;28;20576;-77
2023/03/14 12:58:31;;;;;;;2.30;1.30;;;7.50;99.90;;;;;;5057386;28;20832;-78
2023/03/14 13:01:01;;;;;;;3.95;1.60;;;7.40;99.90;;;;;;5061426;28;20894;-78
2023/03/14 13:03:43;;;;;;;2.80;1.50;;;7.30;99.90;;;;;;5058260;28;20444;-78
2023/03/14 13:06:12;;;;;;;2.40;1.50;;;7.30;99.90;;;;;;5052242;28;20434;-77